Time;durP1;ratioP1;P1;durP2;ratioP2;P2;SDS_P1;SDS_P2;PMS_P1;PMS_P2;Temp;Humidity;BMP_temperature;BMP_pressure;BME280_temperature;BME280_humidity;BME280_pressure;Samples;Min_cycle;Max_cycle;Signal;HPM_P1;HPM_P2
2023/03/13 00:00:46;;;;;;;43.58;14.00;;;8.30;99.90;;;;;;4970328;28;20054;-76
2023/03/13 00:03:12;;;;;;;53.35;12.50;;;8.30;99.90;;;;;;4991619;28;20042;-76
2023/03/13 00:05:37;;;;;;;40.30;12.80;;;8.30;99.90;;;;;;4972899;28;20042;-76
2023/03/13 00:08:03;;;;;;;36.78;12.18;;;8.20;99.90;;;;;;4973068;28;20050;-76
2023/03/13 00:10:29;;;;;;;38.38;13.40;;;8.30;99.90;;;;;;4967183;28;20412;-76
2023/03/13 00:12:54;;;;;;;41.55;11.90;;;8.20;99.90;;;;;;4973699;28;20548;-76
2023/03/13 00:15:20;;;;;;;50.47;11.98;;;8.20;99.90;;;;;;4972990;28;20053;-77
2023/03/13 00:17:46;;;;;;;41.22;10.52;;;8.20;99.90;;;;;;4975433;28;20492;-76
2023/03/13 00:20:12;;;;;;;42.88;11.73;;;8.20;99.90;;;;;;4979851;28;20129;-76
2023/03/13 00:22:37;;;;;;;34.00;11.52;;;8.20;99.90;;;;;;4981114;28;20062;-77
2023/03/13 00:25:03;;;;;;;50.63;12.20;;;8.20;99.90;;;;;;4985975;28;20054;-76
2023/03/13 00:27:33;;;;;;;40.92;12.40;;;8.20;99.90;;;;;;4989075;28;20407;-76
2023/03/13 00:29:59;;;;;;;37.80;11.05;;;8.20;99.90;;;;;;4976334;28;20535;-76
2023/03/13 00:32:24;;;;;;;43.53;11.98;;;8.20;99.90;;;;;;4975208;28;20046;-76
2023/03/13 00:34:50;;;;;;;43.63;13.77;;;8.10;99.90;;;;;;4988939;28;20058;-77
2023/03/13 00:37:17;;;;;;;52.53;14.13;;;8.10;99.90;;;;;;4979274;28;20058;-76
2023/03/13 00:39:43;;;;;;;43.80;12.77;;;8.20;99.90;;;;;;4989734;28;20747;-77
2023/03/13 00:42:11;;;;;;;35.75;12.07;;;8.20;99.90;;;;;;4989223;28;20136;-76
2023/03/13 00:44:37;;;;;;;36.17;12.30;;;8.10;99.90;;;;;;4986156;28;20411;-76
2023/03/13 00:47:04;;;;;;;52.10;11.73;;;8.10;99.90;;;;;;4974530;28;20057;-76
2023/03/13 00:49:30;;;;;;;44.92;12.00;;;8.10;99.90;;;;;;4973657;28;20061;-77
2023/03/13 00:51:56;;;;;;;47.95;12.25;;;8.10;99.90;;;;;;4971305;28;20066;-76
2023/03/13 00:54:21;;;;;;;39.38;12.15;;;8.10;99.90;;;;;;4974645;28;20046;-76
2023/03/13 00:56:47;;;;;;;48.83;12.45;;;8.10;99.90;;;;;;4979061;28;20058;-77
2023/03/13 00:59:13;;;;;;;44.03;12.05;;;8.00;99.90;;;;;;4978701;28;20046;-76
2023/03/13 01:01:39;;;;;;;35.70;12.35;;;8.10;99.90;;;;;;4988540;28;20038;-77
2023/03/13 01:04:08;;;;;;;32.10;11.63;;;8.10;99.90;;;;;;4986442;28;20080;-77
2023/03/13 01:06:36;;;;;;;40.97;12.10;;;8.10;99.90;;;;;;4975585;28;20455;-77
2023/03/13 01:09:03;;;;;;;34.65;11.13;;;8.10;99.90;;;;;;4976005;28;20070;-77
2023/03/13 01:11:31;;;;;;;35.38;11.27;;;8.10;99.90;;;;;;4988273;28;20451;-77
2023/03/13 01:14:03;;;;;;;35.85;11.73;;;8.20;99.90;;;;;;4968027;28;20077;-76
2023/03/13 01:16:31;;;;;;;35.10;10.88;;;8.10;99.90;;;;;;4987975;28;20073;-77
2023/03/13 01:19:00;;;;;;;42.65;11.15;;;8.00;99.90;;;;;;4988206;28;20141;-77
2023/03/13 01:21:26;;;;;;;41.20;11.88;;;8.10;99.90;;;;;;4984678;28;20058;-76
2023/03/13 01:23:53;;;;;;;38.90;11.20;;;8.10;99.90;;;;;;4986810;28;20073;-76
2023/03/13 01:26:21;;;;;;;29.90;10.85;;;8.20;99.90;;;;;;4981996;28;20082;-76
2023/03/13 01:28:47;;;;;;;34.75;12.07;;;8.10;99.90;;;;;;4971262;28;20054;-76
2023/03/13 01:31:19;;;;;;;36.50;12.63;;;8.10;99.90;;;;;;4961683;28;20836;-76
2023/03/13 01:33:48;;;;;;;48.00;13.25;;;8.20;99.90;;;;;;4982997;28;20046;-76
2023/03/13 01:36:14;;;;;;;41.15;13.93;;;8.10;99.90;;;;;;4983612;28;20121;-77
2023/03/13 01:38:39;;;;;;;32.63;11.85;;;8.10;99.90;;;;;;4998244;28;20173;-76
2023/03/13 01:41:07;;;;;;;53.53;12.88;;;8.10;99.90;;;;;;4972391;28;20475;-76
2023/03/13 01:43:35;;;;;;;44.72;12.57;;;8.10;99.90;;;;;;4979703;28;20156;-76
2023/03/13 01:46:03;;;;;;;26.17;10.05;;;8.10;99.90;;;;;;4976115;28;20042;-76
2023/03/13 01:48:44;;;;;;;32.65;12.07;;;8.10;99.90;;;;;;4988480;28;20129;-76
2023/03/13 01:51:39;;;;;;;47.83;12.35;;;8.10;99.90;;;;;;4978210;28;20046;-77
2023/03/13 01:54:13;;;;;;;39.15;12.32;;;8.20;99.90;;;;;;4973768;28;20066;-77
2023/03/13 01:56:42;;;;;;;35.92;10.27;;;8.20;99.90;;;;;;4978640;28;20065;-77
2023/03/13 01:59:12;;;;;;;31.17;10.85;;;8.10;99.90;;;;;;4987237;28;20056;-77
2023/03/13 02:01:38;;;;;;;38.25;12.32;;;8.20;99.90;;;;;;4981972;28;20085;-76
2023/03/13 02:04:05;;;;;;;45.70;12.05;;;8.20;99.90;;;;;;4975075;28;20055;-76
2023/03/13 02:06:34;;;;;;;39.67;11.85;;;8.20;99.90;;;;;;4982329;28;20046;-77
2023/03/13 02:09:22;;;;;;;36.00;11.70;;;8.20;99.90;;;;;;4973032;28;20128;-76
2023/03/13 02:12:08;;;;;;;35.58;11.48;;;8.20;99.90;;;;;;4972723;28;20100;-76
2023/03/13 02:14:37;;;;;;;38.83;11.75;;;8.20;99.90;;;;;;4987221;28;20086;-77
2023/03/13 02:17:03;;;;;;;;;;;8.40;99.90;;;;;;4987829;28;20053;-77
2023/03/13 02:19:47;;;;;;;28.27;11.48;;;8.30;99.90;;;;;;4971062;28;19991;-77
2023/03/13 02:22:19;;;;;;;34.35;11.07;;;8.30;99.90;;;;;;4980161;28;20077;-77
2023/03/13 02:24:47;;;;;;;42.67;11.90;;;8.30;99.90;;;;;;4972553;28;20419;-76
2023/03/13 02:27:13;;;;;;;33.70;12.40;;;8.30;99.90;;;;;;4974295;28;20050;-76
2023/03/13 02:29:40;;;;;;;34.05;11.10;;;8.30;99.90;;;;;;4988500;28;20048;-76
2023/03/13 02:32:07;;;;;;;35.63;10.40;;;8.30;99.90;;;;;;4970884;28;20066;-76
2023/03/13 02:34:36;;;;;;;29.93;9.47;;;8.40;99.90;;;;;;4986940;28;20054;-76
2023/03/13 02:37:04;;;;;;;39.92;11.85;;;8.40;99.90;;;;;;4990910;28;20086;-77
2023/03/13 02:39:31;;;;;;;23.75;9.10;;;8.30;99.90;;;;;;4986945;28;20054;-77
2023/03/13 02:41:58;;;;;;;29.02;10.05;;;8.40;99.90;;;;;;4972786;28;20050;-77
2023/03/13 02:44:24;;;;;;;25.57;9.00;;;8.40;99.90;;;;;;4983619;28;20046;-77
2023/03/13 02:46:51;;;;;;;30.13;10.45;;;8.40;99.90;;;;;;4968173;28;20526;-77
2023/03/13 02:49:26;;;;;;;22.33;9.35;;;8.40;99.90;;;;;;4965756;28;20407;-77
2023/03/13 02:51:53;;;;;;;23.27;9.20;;;8.50;99.90;;;;;;4963643;28;20436;-77
2023/03/13 02:54:30;;;;;;;22.37;8.73;;;8.50;99.90;;;;;;4980441;28;20050;-77
2023/03/13 02:56:59;;;;;;;15.52;8.20;;;8.50;99.90;;;;;;4965525;28;20042;-77
2023/03/13 02:59:26;;;;;;;18.42;8.13;;;8.40;99.90;;;;;;4964361;28;20403;-77
2023/03/13 03:01:53;;;;;;;21.27;8.32;;;8.50;99.90;;;;;;4982602;28;20053;-77
2023/03/13 03:04:23;;;;;;;18.20;7.65;;;8.50;99.90;;;;;;4987475;28;20046;-77
2023/03/13 03:06:49;;;;;;;13.68;7.38;;;8.50;99.90;;;;;;4974837;28;20045;-77
2023/03/13 03:09:17;;;;;;;14.10;6.78;;;8.50;99.90;;;;;;4986032;28;20090;-77
2023/03/13 03:11:43;;;;;;;11.63;7.18;;;8.60;99.90;;;;;;4982954;28;20050;-76
2023/03/13 03:14:10;;;;;;;12.95;6.50;;;8.50;99.90;;;;;;4975345;28;20066;-77
2023/03/13 03:16:36;;;;;;;15.90;6.45;;;8.60;99.90;;;;;;4977741;28;20121;-77
2023/03/13 03:19:03;;;;;;;9.85;6.80;;;8.60;99.90;;;;;;4974375;28;20049;-77
2023/03/13 03:21:28;;;;;;;9.55;5.55;;;8.70;99.90;;;;;;4991534;28;20043;-77
2023/03/13 03:23:54;;;;;;;11.00;5.80;;;8.70;99.90;;;;;;4986882;28;20514;-77
2023/03/13 03:26:21;;;;;;;10.75;5.93;;;8.60;99.90;;;;;;4973684;28;20135;-77
2023/03/13 03:28:46;;;;;;;11.88;6.57;;;8.70;99.90;;;;;;4961206;28;20078;-77
2023/03/13 03:31:14;;;;;;;11.52;7.13;;;8.70;99.90;;;;;;4977287;28;20507;-77
2023/03/13 03:33:41;;;;;;;13.25;5.95;;;8.80;99.90;;;;;;4984383;28;20503;-77
2023/03/13 03:36:10;;;;;;;14.25;5.80;;;8.80;99.90;;;;;;4976150;28;20050;-77
2023/03/13 03:38:38;;;;;;;8.77;6.50;;;8.70;99.90;;;;;;4991326;28;20046;-77
2023/03/13 03:41:05;;;;;;;9.35;6.47;;;8.80;99.90;;;;;;4988665;28;20054;-77
2023/03/13 03:43:31;;;;;;;14.95;6.43;;;8.80;99.90;;;;;;4972968;28;20042;-77
2023/03/13 03:45:57;;;;;;;11.15;7.03;;;8.80;99.90;;;;;;4976175;28;20046;-77
2023/03/13 03:48:22;;;;;;;14.95;8.27;;;8.70;99.90;;;;;;4973612;28;20049;-77
2023/03/13 03:50:48;;;;;;;14.38;7.55;;;8.80;99.90;;;;;;5000846;28;20492;-77
2023/03/13 03:53:14;;;;;;;12.75;7.60;;;8.80;99.90;;;;;;4976190;28;20161;-77
2023/03/13 03:55:39;;;;;;;12.70;7.28;;;8.80;99.90;;;;;;4989701;28;20042;-77
2023/03/13 03:58:05;;;;;;;10.07;6.93;;;8.90;99.90;;;;;;4977781;28;20050;-77
2023/03/13 04:00:31;;;;;;;17.52;6.55;;;8.90;99.90;;;;;;4986523;28;20050;-77
2023/03/13 04:02:56;;;;;;;10.85;6.55;;;9.00;99.90;;;;;;4967234;28;20504;-76
2023/03/13 04:05:23;;;;;;;10.88;6.85;;;8.90;99.90;;;;;;4984698;28;20074;-76
2023/03/13 04:07:49;;;;;;;10.70;6.85;;;9.00;99.90;;;;;;4973247;28;20129;-76
2023/03/13 04:10:15;;;;;;;13.52;7.32;;;9.00;99.90;;;;;;4957279;28;20058;-75
2023/03/13 04:12:41;;;;;;;10.88;7.60;;;9.00;99.90;;;;;;4972665;28;20054;-76
2023/03/13 04:15:07;;;;;;;13.30;6.38;;;9.10;99.90;;;;;;4972881;28;20133;-77
2023/03/13 04:17:33;;;;;;;15.23;7.45;;;9.10;99.90;;;;;;4973713;28;20142;-77
2023/03/13 04:19:58;;;;;;;13.07;7.30;;;9.20;99.90;;;;;;4989338;28;20459;-77
2023/03/13 04:22:24;;;;;;;10.00;6.95;;;9.20;99.90;;;;;;4977403;28;20058;-77
2023/03/13 04:24:50;;;;;;;10.90;6.97;;;9.20;99.90;;;;;;4979570;28;20058;-77
2023/03/13 04:27:16;;;;;;;11.05;6.38;;;9.30;99.90;;;;;;4985612;28;20046;-77
2023/03/13 04:29:41;;;;;;;8.57;6.28;;;9.30;99.90;;;;;;4988625;28;20562;-77
2023/03/13 04:32:07;;;;;;;11.32;5.90;;;9.20;99.90;;;;;;4981829;28;20057;-77
2023/03/13 04:34:33;;;;;;;12.35;6.97;;;9.20;99.90;;;;;;4986462;28;20042;-77
2023/03/13 04:36:58;;;;;;;9.88;6.43;;;9.40;99.90;;;;;;4997228;28;20050;-77
2023/03/13 04:39:24;;;;;;;8.35;6.03;;;9.40;99.90;;;;;;4982975;28;20038;-77
2023/03/13 04:41:54;;;;;;;8.02;6.18;;;9.40;99.90;;;;;;4973657;28;20062;-77
2023/03/13 04:44:21;;;;;;;10.85;7.07;;;9.60;99.90;;;;;;4981007;28;20050;-77
2023/03/13 04:46:48;;;;;;;8.52;5.82;;;9.50;99.90;;;;;;4965161;28;20046;-77
2023/03/13 04:49:15;;;;;;;11.82;6.45;;;9.70;99.90;;;;;;4975717;28;20093;-77
2023/03/13 04:51:42;;;;;;;11.15;8.13;;;9.70;99.90;;;;;;4971068;28;20052;-77
2023/03/13 04:54:08;;;;;;;10.55;6.60;;;9.70;99.90;;;;;;4972168;28;20101;-77
2023/03/13 04:56:34;;;;;;;10.75;6.80;;;9.70;99.90;;;;;;4972380;28;20070;-77
2023/03/13 04:59:00;;;;;;;16.95;8.18;;;9.90;99.90;;;;;;4973767;28;20081;-77
2023/03/13 05:01:26;;;;;;;11.40;7.97;;;9.80;99.90;;;;;;4988544;28;20404;-77
2023/03/13 05:03:51;;;;;;;11.43;8.40;;;9.80;99.90;;;;;;4988596;28;20526;-77
2023/03/13 05:06:17;;;;;;;10.88;7.20;;;9.90;99.90;;;;;;4987491;28;20556;-77
2023/03/13 05:08:43;;;;;;;11.10;8.00;;;9.90;99.90;;;;;;4972358;28;22108;-77
2023/03/13 05:11:09;;;;;;;14.57;8.55;;;10.00;99.90;;;;;;4987580;28;20057;-78
2023/03/13 05:13:34;;;;;;;22.42;9.85;;;10.00;99.90;;;;;;4982295;28;20035;-76
2023/03/13 05:16:00;;;;;;;13.32;8.60;;;10.00;99.90;;;;;;4968717;28;20448;-77
2023/03/13 05:18:26;;;;;;;17.05;8.43;;;10.00;99.90;;;;;;4970432;28;20053;-77
2023/03/13 05:20:53;;;;;;;18.58;8.40;;;10.00;99.90;;;;;;4972304;28;20038;-76
2023/03/13 05:23:20;;;;;;;13.95;9.65;;;10.00;99.90;;;;;;4972369;28;20050;-76
2023/03/13 05:25:45;;;;;;;13.40;9.48;;;10.00;99.90;;;;;;4983190;28;20534;-76
2023/03/13 05:28:11;;;;;;;12.07;9.27;;;10.10;99.90;;;;;;4987684;28;20051;-76
2023/03/13 05:30:38;;;;;;;13.80;9.38;;;10.20;99.90;;;;;;4987598;28;20038;-77
2023/03/13 05:33:03;;;;;;;13.27;9.40;;;10.20;99.90;;;;;;4986236;28;20081;-77
2023/03/13 05:35:29;;;;;;;12.38;8.80;;;10.20;99.90;;;;;;4971112;28;20479;-76
2023/03/13 05:37:55;;;;;;;17.38;9.55;;;10.20;99.90;;;;;;4988144;28;20097;-77
2023/03/13 05:40:20;;;;;;;16.88;10.98;;;10.20;99.90;;;;;;4971441;28;20052;-77
2023/03/13 05:42:46;;;;;;;12.48;9.00;;;10.30;99.90;;;;;;4986672;28;20046;-77
2023/03/13 05:45:12;;;;;;;12.55;8.88;;;10.30;99.90;;;;;;4971260;28;20042;-77
2023/03/13 05:47:38;;;;;;;16.90;10.32;;;10.40;99.90;;;;;;4971405;28;20042;-77
2023/03/13 05:50:05;;;;;;;17.83;9.45;;;10.40;99.90;;;;;;4965263;28;20045;-77
2023/03/13 05:52:32;;;;;;;10.35;8.23;;;10.40;99.90;;;;;;4988481;28;20058;-77
2023/03/13 05:54:58;;;;;;;12.50;9.00;;;10.50;99.90;;;;;;4966815;28;20133;-77
2023/03/13 05:57:23;;;;;;;11.57;8.63;;;10.50;99.90;;;;;;4979741;28;20089;-77
2023/03/13 05:59:49;;;;;;;14.18;8.30;;;10.50;99.90;;;;;;4969722;28;20074;-77
2023/03/13 06:02:15;;;;;;;11.43;8.40;;;10.50;99.90;;;;;;4970442;28;20050;-77
2023/03/13 06:04:40;;;;;;;16.70;8.40;;;10.60;99.90;;;;;;4970461;28;20073;-77
2023/03/13 06:07:06;;;;;;;12.00;9.65;;;10.60;99.90;;;;;;4971853;28;20511;-77
2023/03/13 06:09:32;;;;;;;14.90;8.25;;;10.60;99.90;;;;;;4954636;28;20046;-77
2023/03/13 06:11:58;;;;;;;10.55;8.68;;;10.60;99.90;;;;;;4969683;28;20057;-76
2023/03/13 06:14:23;;;;;;;14.30;8.95;;;10.70;99.90;;;;;;4970065;28;20058;-77
2023/03/13 06:16:49;;;;;;;13.55;10.05;;;10.70;99.90;;;;;;4985874;28;20045;-77
2023/03/13 06:19:15;;;;;;;13.50;8.88;;;10.80;99.90;;;;;;4967864;28;20047;-77
2023/03/13 06:21:41;;;;;;;13.75;9.10;;;10.80;99.90;;;;;;4971513;28;20042;-77
2023/03/13 06:24:07;;;;;;;14.88;10.23;;;10.80;99.90;;;;;;4974751;28;20062;-77
2023/03/13 06:26:32;;;;;;;13.65;10.05;;;10.90;99.90;;;;;;4977766;28;20073;-76
2023/03/13 06:28:58;;;;;;;18.80;10.23;;;11.00;99.90;;;;;;4970150;28;20038;-77
2023/03/13 06:31:24;;;;;;;15.90;9.73;;;11.00;99.90;;;;;;4970878;28;20038;-77
2023/03/13 06:33:54;;;;;;;15.10;10.32;;;11.00;99.90;;;;;;4989382;28;20424;-77
2023/03/13 06:36:24;;;;;;;19.02;9.50;;;11.00;99.90;;;;;;4970547;28;20042;-77
2023/03/13 06:38:50;;;;;;;14.55;10.70;;;11.10;99.90;;;;;;4969293;28;20073;-76
2023/03/13 06:41:15;;;;;;;18.80;10.55;;;11.10;99.90;;;;;;4969212;28;20046;-77
2023/03/13 06:43:41;;;;;;;18.13;11.15;;;11.10;99.90;;;;;;4969236;28;20042;-76
2023/03/13 06:46:13;;;;;;;26.30;10.50;;;11.20;99.90;;;;;;4986474;28;20677;-76
2023/03/13 06:48:39;;;;;;;20.75;10.05;;;11.20;99.90;;;;;;4973236;28;20051;-77
2023/03/13 06:51:09;;;;;;;19.17;11.43;;;11.20;99.90;;;;;;4994934;28;20086;-77
2023/03/13 06:53:35;;;;;;;15.38;10.65;;;11.30;99.90;;;;;;4969180;28;20512;-76
2023/03/13 06:56:01;;;;;;;16.48;9.98;;;11.20;99.90;;;;;;4970126;28;20054;-76
2023/03/13 06:58:26;;;;;;;22.17;11.10;;;11.30;99.90;;;;;;4972494;28;20488;-76
2023/03/13 07:00:53;;;;;;;19.83;10.02;;;11.20;99.90;;;;;;4991595;28;20046;-76
2023/03/13 07:03:19;;;;;;;20.08;9.80;;;11.30;99.90;;;;;;4974042;28;20088;-76
2023/03/13 07:05:44;;;;;;;14.45;9.55;;;11.30;99.90;;;;;;4990421;28;20042;-76
2023/03/13 07:08:10;;;;;;;17.95;9.13;;;11.20;99.90;;;;;;4957913;28;20393;-77
2023/03/13 07:10:36;;;;;;;19.63;10.10;;;11.30;99.90;;;;;;4989665;28;20055;-76
2023/03/13 07:13:02;;;;;;;13.15;8.65;;;11.30;99.90;;;;;;4974106;28;20155;-76
2023/03/13 07:15:28;;;;;;;15.98;8.48;;;11.30;99.90;;;;;;4973911;28;20057;-76
2023/03/13 07:17:57;;;;;;;20.25;8.30;;;11.30;99.90;;;;;;4982806;28;20042;-75
2023/03/13 07:20:23;;;;;;;16.52;9.32;;;11.40;99.90;;;;;;4990947;28;20050;-76
2023/03/13 07:22:52;;;;;;;18.77;8.23;;;11.30;99.90;;;;;;4974867;28;20092;-75
2023/03/13 07:25:18;;;;;;;17.90;8.60;;;11.40;99.90;;;;;;4969314;28;20590;-76
2023/03/13 07:27:44;;;;;;;13.95;8.32;;;11.40;99.90;;;;;;4969601;28;20393;-75
2023/03/13 07:30:10;;;;;;;15.27;9.25;;;11.40;99.90;;;;;;4969173;28;20050;-76
2023/03/13 07:32:36;;;;;;;25.23;8.65;;;11.40;99.90;;;;;;4969299;28;20042;-76
2023/03/13 07:35:03;;;;;;;20.00;9.30;;;11.40;99.90;;;;;;4966050;28;20496;-76
2023/03/13 07:37:29;;;;;;;27.45;9.10;;;11.40;99.90;;;;;;4954492;28;20078;-75
2023/03/13 07:39:55;;;;;;;26.08;8.43;;;11.40;99.90;;;;;;4970220;28;20137;-75
2023/03/13 07:42:20;;;;;;;11.63;7.32;;;11.50;99.90;;;;;;4965557;28;20559;-75
2023/03/13 07:44:46;;;;;;;19.98;8.07;;;11.50;99.90;;;;;;4966733;28;20050;-75
2023/03/13 07:47:13;;;;;;;15.43;7.38;;;11.50;99.90;;;;;;4969149;28;20057;-75
2023/03/13 07:49:42;;;;;;;12.68;7.25;;;11.60;99.90;;;;;;4986442;28;20113;-75
2023/03/13 07:52:08;;;;;;;13.68;7.13;;;11.60;99.90;;;;;;4970183;28;20531;-74
2023/03/13 07:54:34;;;;;;;12.38;7.05;;;11.60;99.90;;;;;;4970155;28;20047;-74
2023/03/13 07:57:01;;;;;;;14.75;6.45;;;11.70;99.90;;;;;;4985806;28;20090;-75
2023/03/13 07:59:27;;;;;;;10.23;6.93;;;11.70;99.90;;;;;;4964518;28;20409;-76
2023/03/13 08:01:52;;;;;;;17.70;6.93;;;11.80;99.90;;;;;;4964277;28;20062;-76
2023/03/13 08:04:18;;;;;;;15.55;6.03;;;11.80;99.90;;;;;;4981073;28;20050;-75
2023/03/13 08:06:44;;;;;;;10.65;6.68;;;11.80;99.90;;;;;;4969681;28;20100;-75
2023/03/13 08:09:09;;;;;;;9.25;5.78;;;11.80;99.90;;;;;;4968806;28;20468;-75
2023/03/13 08:11:37;;;;;;;15.40;6.18;;;11.80;99.90;;;;;;4968108;28;20055;-76
2023/03/13 08:14:02;;;;;;;17.70;6.40;;;11.90;99.90;;;;;;4971386;28;20492;-75
2023/03/13 08:16:33;;;;;;;12.13;6.38;;;11.90;99.90;;;;;;4963673;28;20298;-75
2023/03/13 08:18:59;;;;;;;14.13;6.13;;;11.80;99.90;;;;;;4966850;28;20094;-74
2023/03/13 08:21:31;;;;;;;11.13;5.85;;;11.80;99.90;;;;;;4967190;28;20045;-75
2023/03/13 08:24:00;;;;;;;9.55;6.03;;;11.80;99.90;;;;;;4968505;28;20186;-75
2023/03/13 08:26:28;;;;;;;10.23;6.45;;;11.80;99.90;;;;;;4969617;28;20058;-75
2023/03/13 08:28:56;;;;;;;8.45;5.60;;;11.70;99.90;;;;;;4969225;28;20909;-75
2023/03/13 08:31:23;;;;;;;;;;;11.70;99.90;;;;;;4967901;28;20058;-75
2023/03/13 08:33:49;;;;;;;8.00;5.80;;;11.70;99.90;;;;;;4984729;28;19925;-75
2023/03/13 08:36:16;;;;;;;8.45;5.32;;;11.60;99.90;;;;;;4966654;28;20059;-75
2023/03/13 08:38:44;;;;;;;8.80;6.22;;;11.60;99.90;;;;;;4959009;28;20057;-76
2023/03/13 08:41:15;;;;;;;13.07;4.85;;;11.70;99.90;;;;;;4984521;28;20523;-76
2023/03/13 08:43:42;;;;;;;11.18;6.10;;;11.70;99.90;;;;;;4970162;28;20084;-76
2023/03/13 08:46:07;;;;;;;8.00;6.50;;;11.70;99.90;;;;;;4984256;28;20062;-76
2023/03/13 08:48:33;;;;;;;10.30;5.85;;;11.80;99.90;;;;;;4969150;28;20101;-76
2023/03/13 08:51:07;;;;;;;7.97;5.57;;;11.80;99.90;;;;;;4968525;28;20109;-76
2023/03/13 08:53:34;;;;;;;10.70;6.80;;;11.80;99.90;;;;;;4961500;28;20038;-76
2023/03/13 08:56:00;;;;;;;7.38;5.82;;;11.80;99.90;;;;;;4968653;28;20078;-76
2023/03/13 08:58:26;;;;;;;7.47;5.47;;;11.80;99.90;;;;;;4969401;28;20058;-76
2023/03/13 09:00:53;;;;;;;6.35;5.15;;;11.80;99.90;;;;;;4966426;28;20530;-75
2023/03/13 09:03:19;;;;;;;16.60;6.35;;;11.80;99.90;;;;;;4969114;28;20049;-76
2023/03/13 09:05:46;;;;;;;10.27;5.97;;;11.80;99.90;;;;;;4968616;28;20488;-75
2023/03/13 09:08:14;;;;;;;10.98;5.80;;;11.90;99.90;;;;;;4968282;28;20118;-75
2023/03/13 09:10:39;;;;;;;10.68;5.03;;;12.10;99.90;;;;;;4968748;28;20078;-76
2023/03/13 09:13:05;;;;;;;9.75;4.88;;;12.20;99.90;;;;;;4968802;28;20416;-75
2023/03/13 09:15:31;;;;;;;7.63;5.55;;;12.30;99.90;;;;;;4965562;28;20499;-75
2023/03/13 09:17:56;;;;;;;5.25;4.70;;;12.40;99.90;;;;;;4964108;28;20131;-75
2023/03/13 09:20:22;;;;;;;8.48;5.43;;;12.50;99.90;;;;;;4968322;28;20078;-75
2023/03/13 09:22:48;;;;;;;8.60;4.75;;;12.50;99.90;;;;;;4974979;28;20061;-75
2023/03/13 09:25:13;;;;;;;6.07;4.53;;;12.60;99.90;;;;;;4970423;28;20090;-75
2023/03/13 09:27:39;;;;;;;8.93;4.90;;;12.60;99.90;;;;;;4988192;28;20096;-76
2023/03/13 09:30:06;;;;;;;10.73;4.95;;;12.60;99.90;;;;;;4987437;28;20058;-75
2023/03/13 09:32:32;;;;;;;8.00;4.38;;;12.60;99.90;;;;;;4979277;28;20059;-75
2023/03/13 09:34:58;;;;;;;17.63;6.70;;;12.60;99.90;;;;;;4968188;28;20124;-75
2023/03/13 09:37:24;;;;;;;6.85;4.68;;;12.60;99.90;;;;;;4987711;28;20153;-75
2023/03/13 09:39:50;;;;;;;7.82;5.00;;;12.60;99.90;;;;;;4984681;28;20121;-75
2023/03/13 09:42:49;;;;;;;10.77;5.60;;;12.60;99.90;;;;;;4982535;28;20112;-75
2023/03/13 09:45:32;;;;;;;8.93;5.22;;;12.60;99.90;;;;;;4976361;28;20061;-75
2023/03/13 09:48:07;;;;;;;8.75;5.32;;;12.60;99.90;;;;;;4986763;28;20049;-75
2023/03/13 09:50:42;;;;;;;7.05;5.20;;;12.60;99.90;;;;;;4987712;28;20042;-76
2023/03/13 09:53:18;;;;;;;9.00;4.57;;;12.60;99.90;;;;;;4973068;28;20062;-76
2023/03/13 09:55:45;;;;;;;9.73;4.30;;;12.60;99.90;;;;;;4981750;28;20042;-75
2023/03/13 09:58:20;;;;;;;8.77;3.97;;;12.60;99.90;;;;;;4974663;28;20100;-76
2023/03/13 10:00:55;;;;;;;13.52;5.55;;;12.60;99.90;;;;;;4975657;28;20051;-76
2023/03/13 10:03:26;;;;;;;9.52;4.00;;;12.70;99.90;;;;;;4960702;28;20496;-76
2023/03/13 10:05:56;;;;;;;8.05;4.72;;;12.80;99.90;;;;;;4987631;28;20150;-75
2023/03/13 10:08:28;;;;;;;10.48;3.80;;;12.80;99.90;;;;;;4979990;28;20050;-76
2023/03/13 10:11:09;;;;;;;7.10;4.10;;;12.90;99.90;;;;;;4987351;28;20483;-76
2023/03/13 10:13:57;;;;;;;7.25;3.25;;;13.00;99.90;;;;;;4960716;28;20070;-76
2023/03/13 10:16:31;;;;;;;4.07;3.65;;;13.00;99.90;;;;;;4973018;28;20046;-76
2023/03/13 10:18:58;;;;;;;16.65;4.90;;;13.00;99.90;;;;;;4976461;28;20134;-76
2023/03/13 10:21:31;;;;;;;7.15;4.35;;;13.10;99.90;;;;;;4987184;28;20126;-76
2023/03/13 10:24:01;;;;;;;12.05;6.00;;;13.20;99.90;;;;;;4985384;28;20662;-76
2023/03/13 10:26:31;;;;;;;6.13;4.10;;;13.30;99.90;;;;;;4982152;28;20064;-76
2023/03/13 10:29:10;;;;;;;7.80;4.43;;;13.40;99.90;;;;;;4973825;28;20467;-76
2023/03/13 10:31:37;;;;;;;14.10;4.88;;;13.40;99.90;;;;;;4971262;28;20101;-76
2023/03/13 10:34:11;;;;;;;10.65;4.30;;;13.50;99.90;;;;;;4984834;28;20062;-76
2023/03/13 10:36:53;;;;;;;13.43;4.15;;;13.50;99.90;;;;;;4998204;28;20576;-76
2023/03/13 10:39:22;;;;;;;13.07;4.72;;;13.60;99.90;;;;;;4975054;28;20049;-73
2023/03/13 10:41:49;;;;;;;10.60;3.70;;;13.60;99.90;;;;;;4971433;28;20103;-80
2023/03/13 10:44:16;;;;;;;10.82;3.50;;;13.60;99.90;;;;;;4984860;28;20129;-79
2023/03/13 10:46:45;;;;;;;16.95;4.88;;;13.70;99.90;;;;;;4976429;28;20840;-78
2023/03/13 10:49:21;;;;;;;11.52;4.35;;;13.70;99.90;;;;;;4984755;28;20184;-80
2023/03/13 10:51:49;;;;;;;13.00;4.47;;;13.70;99.90;;;;;;4968881;28;20105;-79
2023/03/13 10:54:23;;;;;;;11.02;4.18;;;13.80;99.90;;;;;;4972560;28;20053;-78
2023/03/13 10:56:50;;;;;;;15.73;4.78;;;13.80;99.90;;;;;;4972065;28;20126;-78
2023/03/13 10:59:25;;;;;;;9.23;3.72;;;13.80;99.90;;;;;;4967337;28;20567;-79
2023/03/13 11:01:57;;;;;;;9.02;3.97;;;13.80;99.90;;;;;;4963905;28;20817;-79
2023/03/13 11:04:34;;;;;;;10.18;4.75;;;13.90;99.90;;;;;;4968889;28;20047;-79
2023/03/13 11:07:13;;;;;;;11.98;4.65;;;14.00;99.90;;;;;;4968572;28;20428;-79
2023/03/13 11:09:39;;;;;;;12.55;4.20;;;14.10;99.90;;;;;;4959963;28;20047;-79
2023/03/13 11:12:19;;;;;;;8.52;4.90;;;14.30;99.90;;;;;;4985655;28;20057;-79
2023/03/13 11:14:45;;;;;;;8.15;4.45;;;14.40;99.90;;;;;;4959154;28;20079;-78
2023/03/13 11:17:36;;;;;;;13.60;5.40;;;14.50;99.90;;;;;;4965452;28;20055;-80
2023/03/13 11:20:26;;;;;;;12.30;4.53;;;14.60;99.90;;;;;;4970839;28;20082;-78
2023/03/13 11:23:20;;;;;;;8.40;3.80;;;14.70;99.90;;;;;;4970483;28;20060;-78
2023/03/13 11:25:52;;;;;;;6.20;3.53;;;14.80;99.90;;;;;;4970031;28;20386;-78
2023/03/13 11:28:27;;;;;;;9.48;3.88;;;14.90;99.90;;;;;;4984800;28;20061;-77
2023/03/13 11:31:02;;;;;;;8.93;4.32;;;14.80;99.90;;;;;;4968128;28;20050;-78
2023/03/13 11:33:37;;;;;;;9.00;3.83;;;14.80;99.90;;;;;;4970316;28;20133;-78
2023/03/13 11:36:13;;;;;;;12.20;3.25;;;14.80;99.90;;;;;;4969612;28;20593;-78
2023/03/13 11:38:52;;;;;;;8.98;3.03;;;14.80;99.90;;;;;;4970884;28;20047;-79
2023/03/13 11:41:33;;;;;;;3.40;2.88;;;14.90;99.90;;;;;;4970545;28;20515;-78
2023/03/13 11:44:36;;;;;;;13.50;3.03;;;15.00;99.90;;;;;;4970339;28;20047;-79
2023/03/13 11:47:25;;;;;;;3.85;2.58;;;15.10;99.90;;;;;;4970094;28;20055;-79
2023/03/13 11:50:22;;;;;;;8.75;3.55;;;15.10;99.90;;;;;;4971732;28;20062;-80
2023/03/13 11:53:02;;;;;;;3.72;2.13;;;15.20;99.90;;;;;;4980849;28;20055;-79
2023/03/13 11:56:00;;;;;;;9.07;2.80;;;15.30;99.90;;;;;;4969870;28;20054;-78
2023/03/13 11:58:54;;;;;;;4.72;2.97;;;15.30;99.90;;;;;;4946092;28;20066;-78
2023/03/13 12:01:24;;;;;;;5.75;2.78;;;15.40;99.90;;;;;;4967707;28;20182;-79
2023/03/13 12:03:55;;;;;;;4.00;2.63;;;15.40;99.90;;;;;;4970588;28;20047;-78
2023/03/13 12:06:55;;;;;;;7.78;3.35;;;15.60;99.90;;;;;;4970578;28;20127;-79
2023/03/13 12:09:32;;;;;;;6.70;3.00;;;15.70;99.90;;;;;;4969237;28;20062;-79
2023/03/13 12:12:02;;;;;;;7.05;3.05;;;15.90;99.90;;;;;;4967194;28;20133;-78
2023/03/13 12:14:48;;;;;;;9.07;3.33;;;15.90;99.90;;;;;;4968587;28;20054;-79
2023/03/13 12:17:38;;;;;;;5.20;2.42;;;15.90;99.90;;;;;;4984889;28;20047;-79
2023/03/13 12:20:24;;;;;;;4.60;2.97;;;15.90;99.90;;;;;;4969452;28;20519;-78
2023/03/13 12:23:16;;;;;;;5.38;3.25;;;15.80;99.90;;;;;;4975503;28;20177;-79
2023/03/13 12:26:08;;;;;;;7.78;2.70;;;15.80;99.90;;;;;;4969150;28;20058;-79
2023/03/13 12:28:49;;;;;;;8.45;2.67;;;15.70;99.90;;;;;;4969644;28;20055;-79
2023/03/13 12:31:30;;;;;;;8.00;3.10;;;15.70;99.90;;;;;;4962248;28;20113;-76
2023/03/13 12:34:10;;;;;;;8.50;3.40;;;15.80;99.90;;;;;;4969207;28;20432;-79
2023/03/13 12:37:05;;;;;;;8.70;3.45;;;15.70;99.90;;;;;;4970472;28;20058;-79
2023/03/13 12:39:39;;;;;;;10.25;2.83;;;15.80;99.90;;;;;;4969312;28;20162;-78
2023/03/13 12:42:23;;;;;;;7.75;2.33;;;15.70;99.90;;;;;;4965602;28;20042;-78
2023/03/13 12:44:49;;;;;;;8.50;3.05;;;15.80;99.90;;;;;;4969463;28;20500;-78
2023/03/13 12:47:19;;;;;;;8.38;2.45;;;15.80;99.90;;;;;;4967147;28;20047;-78
2023/03/13 12:50:04;;;;;;;9.05;3.55;;;15.80;99.90;;;;;;4968961;28;20046;-78
2023/03/13 12:52:55;;;;;;;4.30;2.30;;;15.70;99.90;;;;;;4969391;28;20054;-78